createdAt,value
2022-09-11T00:01:09.583Z,89.09
2022-09-11T00:04:11.365Z,89.14
2022-09-11T00:07:13.128Z,89.08
2022-09-11T00:10:15.290Z,89.16
2022-09-11T00:13:21.674Z,89.21
2022-09-11T00:16:34.080Z,88.71
2022-09-11T00:19:36.686Z,90.08
2022-09-11T00:22:39.834Z,89.15
2022-09-11T00:25:41.891Z,88.66
2022-09-11T00:28:50.980Z,90.29
2022-09-11T00:31:52.924Z,89.58
2022-09-11T00:34:54.792Z,89.15
2022-09-11T00:37:57.413Z,89.16
2022-09-11T00:41:01.148Z,88.53
2022-09-11T00:44:07.567Z,87.97
2022-09-11T00:47:09.958Z,88.93
2022-09-11T00:50:19.542Z,89.81
2022-09-11T00:53:30.487Z,90.38
2022-09-11T00:56:38.058Z,91.79
2022-09-11T00:59:42.160Z,90.96
2022-09-11T01:02:47.913Z,89.54
2022-09-11T01:05:56.368Z,89.09
2022-09-11T01:09:00.595Z,89.66
2022-09-11T01:12:12.160Z,88.69
2022-09-11T01:15:50.154Z,88.75
2022-09-11T01:19:05.903Z,88.87
2022-09-11T01:22:16.868Z,88.97
2022-09-11T01:25:23.368Z,88.32
2022-09-11T01:28:54.416Z,89.28
2022-09-11T01:32:07.018Z,88.51
2022-09-11T01:35:24.962Z,88.68
2022-09-11T01:38:59.596Z,89.23
2022-09-11T01:42:07.242Z,90.16
2022-09-11T01:45:10.791Z,90.15
2022-09-11T01:48:18.706Z,90.43
2022-09-11T01:51:24.301Z,88.69
2022-09-11T01:54:43.231Z,89.03
2022-09-11T01:57:58.066Z,89.53
2022-09-11T02:01:06.236Z,89.39
2022-09-11T02:04:22.503Z,91.46
2022-09-11T02:07:31.911Z,90.21
2022-09-11T02:10:40.972Z,89.38
2022-09-11T02:14:16.645Z,89.44
2022-09-11T02:17:31.763Z,89.03
2022-09-11T02:20:45.699Z,89.43
2022-09-11T02:23:50.939Z,90.52
2022-09-11T02:26:55.991Z,92.06
2022-09-11T02:30:01.152Z,92.26
2022-09-11T02:33:47.400Z,92.30
2022-09-11T02:37:13.700Z,90.21
2022-09-11T02:40:46.953Z,89.81
2022-09-11T02:44:21.081Z,89.94
2022-09-11T02:47:35.450Z,88.92
2022-09-11T02:50:49.756Z,89.29
2022-09-11T02:54:21.148Z,90.21
2022-09-11T02:57:39.619Z,88.48
2022-09-11T03:00:41.871Z,88.89
2022-09-11T03:03:46.929Z,88.86
2022-09-11T03:06:50.950Z,88.40
2022-09-11T03:09:57.220Z,87.68
2022-09-11T03:13:00.424Z,88.05
2022-09-11T03:16:06.611Z,88.40
2022-09-11T03:19:09.040Z,90.15
2022-09-11T03:22:14.805Z,89.71
2022-09-11T03:25:17.964Z,89.28
2022-09-11T03:28:23.725Z,89.64
2022-09-11T03:31:26.563Z,89.29
2022-09-11T03:34:30.038Z,88.84
2022-09-11T03:37:32.407Z,88.98
2022-09-11T03:40:41.801Z,88.49
2022-09-11T03:43:43.854Z,88.67
2022-09-11T03:46:54.230Z,88.96
2022-09-11T03:49:57.022Z,90.18
2022-09-11T03:52:59.153Z,89.62
2022-09-11T03:56:06.053Z,90.11
2022-09-11T03:59:18.336Z,89.20
2022-09-11T04:02:20.765Z,89.05
2022-09-11T04:05:32.401Z,90.12
2022-09-11T04:08:41.635Z,90.16
2022-09-11T04:11:49.843Z,89.28
2022-09-11T04:15:02.950Z,92.17
2022-09-11T04:18:07.698Z,91.78
2022-09-11T04:21:16.378Z,93.50
2022-09-11T04:24:24.765Z,93.94
2022-09-11T04:27:27.636Z,93.85
2022-09-11T04:30:31.038Z,94.63
2022-09-11T04:33:35.409Z,93.80
2022-09-11T04:36:38.711Z,92.29
2022-09-11T04:39:44.620Z,93.78
2022-09-11T04:42:47.374Z,92.80
2022-09-11T04:45:50.380Z,92.16
2022-09-11T04:48:56.502Z,91.95
2022-09-11T04:52:06.090Z,91.34
2022-09-11T04:55:10.176Z,91.76
2022-09-11T04:58:14.833Z,90.68
2022-09-11T05:01:17.396Z,90.43
2022-09-11T05:04:27.822Z,92.13
2022-09-11T05:07:35.463Z,93.04
2022-09-11T05:10:48.823Z,92.45
2022-09-11T05:13:52.371Z,92.75
2022-09-11T05:16:58.701Z,92.83
2022-09-11T05:20:12.658Z,94.34
2022-09-11T05:23:19.010Z,93.18
2022-09-11T05:26:31.399Z,92.55
2022-09-11T05:29:35.840Z,92.04
2022-09-11T05:32:44.624Z,91.64
2022-09-11T05:35:52.806Z,90.10
2022-09-11T05:39:02.808Z,89.04
2022-09-11T05:42:05.949Z,89.40
2022-09-11T05:45:26.000Z,91.04
2022-09-11T05:48:30.046Z,91.46
2022-09-11T05:51:37.730Z,91.08
2022-09-11T05:54:47.280Z,92.54
2022-09-11T05:57:53.198Z,91.01
2022-09-11T06:01:12.697Z,91.52
2022-09-11T06:04:21.674Z,90.83
2022-09-11T06:07:27.792Z,90.06
2022-09-11T06:10:32.894Z,89.64
2022-09-11T06:13:37.865Z,89.71
2022-09-11T06:16:44.181Z,89.02
2022-09-11T06:19:50.636Z,87.90
2022-09-11T06:22:52.945Z,87.64
2022-09-11T06:26:03.315Z,86.65
2022-09-11T06:29:11.113Z,87.29
2022-09-11T06:32:12.980Z,87.75
2022-09-11T06:35:18.940Z,85.86
2022-09-11T06:38:21.581Z,86.58
2022-09-11T06:41:25.691Z,85.57
2022-09-11T06:44:34.670Z,84.60
2022-09-11T06:47:40.677Z,85.14
2022-09-11T06:50:46.294Z,83.97
2022-09-11T06:53:49.001Z,84.24
2022-09-11T06:56:54.080Z,84.27
2022-09-11T06:59:58.160Z,85.33
2022-09-11T07:03:04.257Z,84.73
2022-09-11T07:06:06.591Z,84.04
2022-09-11T07:09:12.037Z,84.13
2022-09-11T07:12:24.420Z,83.64
2022-09-11T07:15:27.090Z,83.39
2022-09-11T07:18:36.507Z,82.87
2022-09-11T07:21:42.875Z,81.84
2022-09-11T07:24:47.425Z,80.79
2022-09-11T07:27:52.315Z,79.83
2022-09-11T07:31:04.448Z,78.26
2022-09-11T07:34:07.115Z,78.66
2022-09-11T07:37:10.318Z,77.05
2022-09-11T07:40:14.405Z,74.15
2022-09-11T07:43:16.755Z,76.01
2022-09-11T07:46:19.863Z,74.43
2022-09-11T07:49:24.446Z,73.10
2022-09-11T07:52:27.706Z,74.10
2022-09-11T07:55:35.656Z,73.72
2022-09-11T07:58:40.807Z,73.92
2022-09-11T08:01:44.695Z,73.99
2022-09-11T08:04:47.554Z,74.60
2022-09-11T08:07:51.971Z,71.40
2022-09-11T08:10:58.153Z,72.83
2022-09-11T08:14:01.630Z,72.36
2022-09-11T08:17:03.771Z,71.83
2022-09-11T08:20:07.884Z,73.72
2022-09-11T08:23:13.694Z,73.31
2022-09-11T08:26:24.005Z,70.87
2022-09-11T08:29:28.678Z,72.20
2022-09-11T08:32:31.832Z,71.46
2022-09-11T08:35:35.871Z,72.45
2022-09-11T08:38:40.706Z,72.02
2022-09-11T08:41:43.595Z,72.88
2022-09-11T08:44:57.029Z,74.90
2022-09-11T08:48:07.211Z,75.95
2022-09-11T08:51:17.624Z,76.09
2022-09-11T08:54:33.888Z,78.29
2022-09-11T08:57:57.659Z,80.31
2022-09-11T09:01:10.957Z,79.28
2022-09-11T09:04:23.945Z,79.60
2022-09-11T09:07:26.784Z,79.64
2022-09-11T09:10:34.607Z,81.55
2022-09-11T09:14:00.746Z,80.68
2022-09-11T09:17:10.376Z,80.85
2022-09-11T09:20:24.421Z,80.82
2022-09-11T09:23:36.885Z,82.91
2022-09-11T09:26:42.813Z,79.91
2022-09-11T09:29:48.127Z,80.00
2022-09-11T09:33:13.214Z,77.90
2022-09-11T09:36:25.502Z,73.56
2022-09-11T09:39:29.829Z,74.95
2022-09-11T09:42:51.489Z,75.57
2022-09-11T09:46:27.169Z,73.90
2022-09-11T09:49:34.629Z,73.06
2022-09-11T09:52:37.511Z,74.74
2022-09-11T09:55:40.704Z,73.87
2022-09-11T09:59:12.239Z,72.73
2022-09-11T10:03:02.573Z,70.83
2022-09-11T10:06:05.648Z,70.96
2022-09-11T10:09:26.246Z,71.21
2022-09-11T10:12:34.001Z,71.07
2022-09-11T10:15:39.534Z,70.63
2022-09-11T10:18:44.285Z,70.62
2022-09-11T10:21:46.561Z,70.76
2022-09-11T10:25:12.787Z,69.81
2022-09-11T10:28:17.824Z,67.28
2022-09-11T10:31:22.558Z,68.33
2022-09-11T10:34:29.408Z,68.11
2022-09-11T10:37:31.755Z,66.86
2022-09-11T10:40:36.677Z,65.72
2022-09-11T10:43:42.051Z,63.82
2022-09-11T10:46:46.386Z,65.31
2022-09-11T10:49:49.365Z,66.75
2022-09-11T10:53:10.611Z,66.27
2022-09-11T10:56:13.855Z,66.96
2022-09-11T10:59:50.190Z,67.02
2022-09-11T11:02:56.817Z,67.53
2022-09-11T11:06:07.203Z,68.11
2022-09-11T11:09:33.575Z,64.01
2022-09-11T11:13:13.789Z,62.20
2022-09-11T11:16:35.229Z,60.60
2022-09-11T11:19:58.850Z,59.92
2022-09-11T11:23:30.657Z,60.39
2022-09-11T11:27:08.184Z,62.48
2022-09-11T11:30:15.584Z,62.38
2022-09-11T11:33:42.887Z,61.88
2022-09-11T11:36:47.036Z,62.69
2022-09-11T11:40:02.761Z,60.73
2022-09-11T11:43:08.793Z,59.83
2022-09-11T11:46:16.077Z,60.04
2022-09-11T11:49:50.594Z,57.36
2022-09-11T11:53:27.045Z,58.30
2022-09-11T11:56:41.017Z,58.44
2022-09-11T12:00:17.300Z,59.15
2022-09-11T12:03:51.183Z,61.10
2022-09-11T12:06:53.263Z,65.90
2022-09-11T12:09:58.201Z,71.80
2022-09-11T12:13:03.137Z,74.23
2022-09-11T12:16:11.842Z,75.68
2022-09-11T12:19:25.548Z,75.20
2022-09-11T12:22:38.571Z,75.79
2022-09-11T12:25:50.295Z,75.53
2022-09-11T12:29:12.215Z,70.69
2022-09-11T12:32:19.706Z,71.21
2022-09-11T12:35:28.650Z,67.75
2022-09-11T12:38:41.456Z,67.25
2022-09-11T12:41:46.322Z,64.67
2022-09-11T12:44:48.853Z,67.42
2022-09-11T12:47:51.336Z,66.35
2022-09-11T12:50:55.268Z,64.06
2022-09-11T12:54:03.774Z,64.43
2022-09-11T12:57:10.237Z,63.91
2022-09-11T13:00:24.283Z,62.79
2022-09-11T13:03:30.671Z,64.91
2022-09-11T13:06:52.933Z,65.71
2022-09-11T13:09:57.605Z,62.54
2022-09-11T13:13:02.928Z,65.64
2022-09-11T13:16:20.269Z,63.39
2022-09-11T13:19:23.495Z,63.74
2022-09-11T13:22:31.403Z,62.86
2022-09-11T13:25:45.569Z,64.99
2022-09-11T13:28:52.691Z,64.49
2022-09-11T13:31:58.064Z,63.88
2022-09-11T13:35:05.863Z,62.84
2022-09-11T13:38:19.479Z,63.19
2022-09-11T13:41:26.271Z,60.91
2022-09-11T13:44:40.076Z,60.07
2022-09-11T13:47:42.523Z,59.25
2022-09-11T13:50:45.430Z,60.13
2022-09-11T13:54:12.540Z,58.80
2022-09-11T13:57:18.550Z,61.67
2022-09-11T14:00:40.264Z,60.96
2022-09-11T14:03:49.844Z,62.55
2022-09-11T14:06:51.934Z,64.23
2022-09-11T14:10:05.085Z,65.82
2022-09-11T14:13:36.708Z,66.37
2022-09-11T14:16:46.803Z,64.47
2022-09-11T14:19:52.073Z,66.53
2022-09-11T14:22:59.669Z,66.44
2022-09-11T14:26:16.217Z,66.68
2022-09-11T14:29:31.071Z,66.53
2022-09-11T14:32:39.470Z,67.02
2022-09-11T14:35:43.065Z,67.36
2022-09-11T14:38:49.177Z,68.15
2022-09-11T14:41:59.864Z,70.11
2022-09-11T14:45:25.225Z,72.60
2022-09-11T14:48:28.830Z,75.04
2022-09-11T14:51:35.050Z,76.31
2022-09-11T14:54:37.895Z,75.38
2022-09-11T14:57:40.987Z,75.45
2022-09-11T15:00:44.431Z,77.44
2022-09-11T15:03:48.632Z,77.60
2022-09-11T15:06:53.530Z,76.16
2022-09-11T15:09:59.280Z,75.38
2022-09-11T15:13:04.596Z,74.47
2022-09-11T15:16:09.882Z,74.74
2022-09-11T15:19:15.397Z,72.71
2022-09-11T15:22:18.181Z,73.21
2022-09-11T15:25:20.238Z,72.66
2022-09-11T15:28:24.974Z,73.47
2022-09-11T15:31:30.443Z,74.93
2022-09-11T15:34:33.509Z,74.55
2022-09-11T15:37:35.808Z,75.00
2022-09-11T15:40:39.575Z,75.15
2022-09-11T15:43:45.975Z,76.68
2022-09-11T15:46:51.237Z,77.13
2022-09-11T15:49:57.241Z,77.37
2022-09-11T15:52:59.472Z,78.99
2022-09-11T15:56:13.571Z,80.59
2022-09-11T15:59:16.811Z,80.04
2022-09-11T16:02:21.021Z,80.84
2022-09-11T16:05:24.702Z,82.15
2022-09-11T16:08:28.382Z,82.40
2022-09-11T16:11:35.457Z,81.35
2022-09-11T16:14:38.983Z,79.85
2022-09-11T16:17:42.345Z,80.32
2022-09-11T16:20:44.704Z,81.97
2022-09-11T16:23:53.580Z,82.45
2022-09-11T16:26:59.816Z,81.63
2022-09-11T16:30:42.071Z,82.45
2022-09-11T16:33:30.173Z,82.55
2022-09-11T16:36:41.542Z,83.41
2022-09-11T16:39:50.393Z,83.16
2022-09-11T16:42:54.591Z,82.82
2022-09-11T16:45:59.360Z,81.70
2022-09-11T16:49:04.365Z,83.14
2022-09-11T16:52:08.031Z,83.95
2022-09-11T16:55:11.833Z,85.16
2022-09-11T16:58:16.733Z,85.73
2022-09-11T17:01:25.264Z,87.54
2022-09-11T17:04:28.038Z,87.57
2022-09-11T17:07:36.298Z,88.03
2022-09-11T17:10:45.208Z,88.17
2022-09-11T17:13:48.541Z,88.26
2022-09-11T17:16:52.337Z,88.12
2022-09-11T17:19:55.244Z,87.74
2022-09-11T17:23:02.720Z,88.16
2022-09-11T17:26:10.117Z,88.25
2022-09-11T17:29:15.953Z,88.73
2022-09-11T17:32:28.488Z,87.31
2022-09-11T17:35:33.503Z,86.49
2022-09-11T17:38:37.523Z,87.16
2022-09-11T17:41:43.032Z,85.69
2022-09-11T17:44:48.405Z,86.24
2022-09-11T17:47:53.068Z,88.25
2022-09-11T17:51:25.960Z,88.70
2022-09-11T17:54:29.017Z,88.61
2022-09-11T17:57:32.523Z,89.35
2022-09-11T18:00:35.517Z,90.44
2022-09-11T18:03:39.741Z,91.57
2022-09-11T18:07:04.202Z,91.08
2022-09-11T18:10:06.828Z,93.76
2022-09-11T18:13:09.825Z,94.21
2022-09-11T18:16:11.937Z,95.48
2022-09-11T18:19:16.783Z,96.77
2022-09-11T18:22:19.903Z,95.50
2022-09-11T18:25:25.805Z,96.28
2022-09-11T18:28:29.794Z,95.14
2022-09-11T18:31:37.275Z,96.14
2022-09-11T18:34:39.740Z,96.15
2022-09-11T18:37:43.217Z,96.07
2022-09-11T18:40:45.345Z,97.34
2022-09-11T18:43:48.798Z,98.08
2022-09-11T18:46:54.796Z,99.45
2022-09-11T18:50:01.146Z,100.00
2022-09-11T18:53:03.313Z,99.04
2022-09-11T18:56:09.666Z,98.09
2022-09-11T18:59:12.723Z,99.09
2022-09-11T19:02:15.393Z,99.79
2022-09-11T19:05:19.490Z,100.00
2022-09-11T19:08:26.439Z,100.00
2022-09-11T19:11:32.487Z,100.00
2022-09-11T19:14:36.253Z,100.00
2022-09-11T19:17:38.927Z,98.07
2022-09-11T19:20:41.538Z,98.01
2022-09-11T19:23:45.429Z,97.53
2022-09-11T19:26:47.966Z,96.28
2022-09-11T19:29:50.307Z,97.12
2022-09-11T19:32:52.979Z,96.89
2022-09-11T19:35:57.728Z,96.45
2022-09-11T19:39:00.879Z,96.91
2022-09-11T19:42:04.448Z,96.92
2022-09-11T19:45:08.571Z,97.84
2022-09-11T19:48:13.129Z,96.67
2022-09-11T19:51:24.012Z,96.79
2022-09-11T19:54:26.215Z,96.65
2022-09-11T19:57:28.450Z,96.70
2022-09-11T20:00:31.397Z,97.24
2022-09-11T20:03:33.378Z,97.13
2022-09-11T20:06:36.445Z,97.37
2022-09-11T20:09:39.156Z,98.20
2022-09-11T20:12:41.402Z,98.01
2022-09-11T20:15:43.841Z,97.57
2022-09-11T20:18:46.904Z,97.74
2022-09-11T20:21:48.896Z,96.74
2022-09-11T20:24:51.642Z,97.69
2022-09-11T20:27:54.272Z,97.81
2022-09-11T20:31:00.509Z,98.07
2022-09-11T20:34:03.745Z,97.95
2022-09-11T20:37:10.006Z,99.07
2022-09-11T20:40:12.529Z,100.00
2022-09-11T20:43:14.962Z,99.51
2022-09-11T20:46:18.512Z,99.62
2022-09-11T20:49:20.769Z,99.85
2022-09-11T20:52:22.784Z,99.82
2022-09-11T20:55:24.834Z,100.00
2022-09-11T20:58:26.946Z,100.00
2022-09-11T21:01:32.623Z,100.00
2022-09-11T21:04:34.772Z,100.00
2022-09-11T21:07:36.826Z,100.00
2022-09-11T21:10:38.771Z,100.00
2022-09-11T21:13:42.526Z,100.00
2022-09-11T21:16:44.623Z,100.00
2022-09-11T21:19:46.555Z,100.00
2022-09-11T21:22:48.723Z,100.00
2022-09-11T21:25:52.744Z,100.00
2022-09-11T21:28:59.227Z,100.00
2022-09-11T21:32:01.897Z,100.00
2022-09-11T21:35:04.340Z,100.00
2022-09-11T21:38:06.292Z,100.00
2022-09-11T21:41:10.413Z,100.00
2022-09-11T21:44:12.249Z,100.00
2022-09-11T21:47:14.133Z,100.00
2022-09-11T21:50:21.831Z,100.00
2022-09-11T21:53:24.906Z,100.00
2022-09-11T21:56:30.270Z,100.00
2022-09-11T21:59:32.849Z,100.00
2022-09-11T22:02:35.011Z,100.00
2022-09-11T22:05:45.980Z,100.00
2022-09-11T22:08:47.773Z,100.00
2022-09-11T22:11:50.174Z,100.00
2022-09-11T22:14:53.160Z,100.00
2022-09-11T22:17:55.467Z,100.00
2022-09-11T22:21:00.751Z,100.00
2022-09-11T22:24:04.561Z,100.00
2022-09-11T22:27:07.217Z,100.00
2022-09-11T22:30:10.549Z,100.00
2022-09-11T22:33:12.508Z,100.00
2022-09-11T22:36:18.133Z,100.00
2022-09-11T22:39:20.189Z,100.00
2022-09-11T22:42:22.025Z,100.00
2022-09-11T22:45:23.974Z,100.00
2022-09-11T22:48:25.969Z,100.00
2022-09-11T22:51:28.267Z,100.00
2022-09-11T22:54:30.384Z,100.00
2022-09-11T22:57:35.105Z,100.00
2022-09-11T23:00:38.024Z,100.00
2022-09-11T23:03:40.080Z,100.00
2022-09-11T23:07:01.587Z,100.00
2022-09-11T23:10:04.053Z,100.00
2022-09-11T23:13:06.152Z,100.00
2022-09-11T23:16:17.861Z,100.00
2022-09-11T23:19:20.270Z,100.00
2022-09-11T23:22:23.047Z,100.00
2022-09-11T23:25:25.659Z,100.00
2022-09-11T23:28:27.410Z,100.00
2022-09-11T23:31:31.566Z,100.00
2022-09-11T23:34:33.707Z,100.00
2022-09-11T23:37:35.756Z,100.00
2022-09-11T23:40:38.082Z,100.00
2022-09-11T23:43:40.300Z,100.00
2022-09-11T23:46:43.037Z,100.00
2022-09-11T23:49:44.979Z,100.00
2022-09-11T23:52:46.882Z,100.00
2022-09-11T23:55:52.525Z,100.00
2022-09-11T23:58:54.475Z,100.00
